Time;durP1;ratioP1;P1;durP2;ratioP2;P2;SDS_P1;SDS_P2;PMS_P1;PMS_P2;Temp;Humidity;BMP_temperature;BMP_pressure;BME280_temperature;BME280_humidity;BME280_pressure;Samples;Min_cycle;Max_cycle;Signal;HPM_P1;HPM_P2
2022/06/15 00:00:35;;;;;;;15.73;8.15;;;13.60;99.90;;;;;;5047997;28;20443;-69
2022/06/15 00:03:01;;;;;;;14.80;8.13;;;13.60;99.90;;;;;;5047383;28;20494;-69
2022/06/15 00:05:28;;;;;;;19.33;8.30;;;13.50;99.90;;;;;;5038585;28;20041;-70
2022/06/15 00:07:54;;;;;;;13.05;7.80;;;13.50;99.90;;;;;;5051556;28;20403;-68
2022/06/15 00:10:20;;;;;;;15.38;7.32;;;13.40;99.90;;;;;;5042956;28;20033;-68
2022/06/15 00:12:45;;;;;;;13.07;7.57;;;13.40;99.90;;;;;;5065691;28;20037;-70
2022/06/15 00:15:13;;;;;;;16.58;8.13;;;13.40;99.90;;;;;;5015182;28;20054;-68
2022/06/15 00:17:39;;;;;;;12.27;7.68;;;13.30;99.90;;;;;;5038971;28;20124;-69
2022/06/15 00:20:06;;;;;;;15.23;8.60;;;13.30;99.90;;;;;;5033124;28;20521;-68
2022/06/15 00:22:31;;;;;;;14.07;7.80;;;13.20;99.90;;;;;;5028740;28;20143;-69
2022/06/15 00:24:57;;;;;;;15.98;8.13;;;13.20;99.90;;;;;;5030398;28;20403;-69
2022/06/15 00:27:23;;;;;;;13.60;7.50;;;13.20;99.90;;;;;;5030095;28;20407;-70
2022/06/15 00:29:48;;;;;;;11.20;6.70;;;13.20;99.90;;;;;;5043536;28;20434;-69
2022/06/15 00:32:14;;;;;;;10.55;6.97;;;13.20;99.90;;;;;;5035863;28;20033;-69
2022/06/15 00:34:40;;;;;;;11.50;7.43;;;13.20;99.90;;;;;;5029086;28;20041;-69
2022/06/15 00:37:06;;;;;;;15.25;7.38;;;13.10;99.90;;;;;;5030224;28;20099;-69
2022/06/15 00:39:33;;;;;;;13.15;7.60;;;13.10;99.90;;;;;;5029518;28;20050;-69
2022/06/15 00:41:59;;;;;;;11.05;6.68;;;13.10;99.90;;;;;;5030818;28;20076;-69
2022/06/15 00:44:25;;;;;;;9.98;7.43;;;13.10;99.90;;;;;;5030003;28;20103;-69
2022/06/15 00:47:24;;;;;;;13.27;6.75;;;13.10;99.90;;;;;;5030286;28;20386;-69
2022/06/15 00:50:00;;;;;;;10.20;7.13;;;13.00;99.90;;;;;;5028864;28;21366;-69
2022/06/15 00:52:46;;;;;;;15.18;6.70;;;13.00;99.90;;;;;;5029072;28;20159;-69
2022/06/15 00:55:23;;;;;;;11.68;6.40;;;13.00;99.90;;;;;;5027986;28;20041;-69
2022/06/15 00:57:49;;;;;;;15.20;7.63;;;12.90;99.90;;;;;;5030929;28;20041;-69
2022/06/15 01:00:16;;;;;;;13.43;6.50;;;12.90;99.90;;;;;;5031268;28;20053;-69
2022/06/15 01:02:42;;;;;;;16.77;7.25;;;12.90;99.90;;;;;;5040486;28;20053;-69
2022/06/15 01:05:14;;;;;;;12.13;7.45;;;12.90;99.90;;;;;;5038924;28;20045;-69
2022/06/15 01:07:56;;;;;;;12.80;6.60;;;12.90;99.90;;;;;;5031341;28;20719;-69
2022/06/15 01:10:40;;;;;;;12.75;6.50;;;12.80;99.90;;;;;;5036230;28;20037;-69
2022/06/15 01:13:24;;;;;;;10.50;6.60;;;12.80;99.90;;;;;;5045938;28;20064;-69
2022/06/15 01:16:07;;;;;;;10.35;6.72;;;12.80;99.90;;;;;;5033525;28;20059;-69
2022/06/15 01:18:48;;;;;;;10.85;6.65;;;12.70;99.90;;;;;;5029126;28;20056;-69
2022/06/15 01:21:36;;;;;;;12.20;6.43;;;12.70;99.90;;;;;;5040058;28;20049;-69
2022/06/15 01:24:16;;;;;;;15.25;7.22;;;12.70;99.90;;;;;;5029257;28;20040;-69
2022/06/15 01:27:24;;;;;;;9.27;6.55;;;12.70;99.90;;;;;;5032072;28;20049;-69
2022/06/15 01:30:25;;;;;;;10.48;6.55;;;12.70;99.90;;;;;;5041000;28;20084;-70
2022/06/15 01:33:26;;;;;;;13.02;6.47;;;12.70;99.90;;;;;;5027568;28;20045;-69
2022/06/15 01:35:51;;;;;;;12.63;6.65;;;12.60;99.90;;;;;;5027715;28;20037;-69
2022/06/15 01:38:36;;;;;;;11.30;6.88;;;12.60;99.90;;;;;;5027266;28;20049;-70
2022/06/15 01:41:10;;;;;;;12.73;6.13;;;12.60;99.90;;;;;;5025809;28;20040;-70
2022/06/15 01:44:00;;;;;;;10.20;6.30;;;12.60;99.90;;;;;;5033982;28;20057;-69
2022/06/15 01:46:27;;;;;;;14.57;7.57;;;12.60;99.90;;;;;;5027738;28;20124;-70
2022/06/15 01:48:55;;;;;;;13.00;6.47;;;12.50;99.90;;;;;;5044443;28;20491;-69
2022/06/15 01:51:25;;;;;;;12.85;5.78;;;12.50;99.90;;;;;;5034152;28;20175;-70
2022/06/15 01:54:06;;;;;;;11.63;5.85;;;12.50;99.90;;;;;;5026976;28;20041;-70
2022/06/15 01:56:39;;;;;;;10.70;6.57;;;12.50;99.90;;;;;;5035820;28;20037;-70
2022/06/15 01:59:19;;;;;;;10.77;5.97;;;12.50;99.90;;;;;;5052781;28;20049;-70
2022/06/15 02:02:04;;;;;;;12.18;6.95;;;12.40;99.90;;;;;;5044005;28;20053;-70
2022/06/15 02:04:51;;;;;;;11.38;5.63;;;12.40;99.90;;;;;;5037463;28;20037;-70
2022/06/15 02:07:49;;;;;;;10.55;6.60;;;12.40;99.90;;;;;;5053622;28;20447;-70
2022/06/15 02:10:22;;;;;;;12.85;5.82;;;12.30;99.90;;;;;;5039976;28;20247;-70
2022/06/15 02:13:07;;;;;;;12.27;7.35;;;12.30;99.90;;;;;;5041549;28;20037;-70
2022/06/15 02:15:35;;;;;;;16.20;7.20;;;12.30;99.90;;;;;;5042902;28;20094;-69
2022/06/15 02:18:06;;;;;;;14.95;6.90;;;12.30;99.90;;;;;;5028574;28;20042;-70
2022/06/15 02:20:36;;;;;;;11.48;6.60;;;12.20;99.90;;;;;;5030993;28;20052;-70
2022/06/15 02:23:06;;;;;;;8.70;6.25;;;12.30;99.90;;;;;;5035081;28;20478;-70
2022/06/15 02:25:35;;;;;;;7.78;5.97;;;12.20;99.90;;;;;;5051505;28;20040;-70
2022/06/15 02:28:02;;;;;;;16.17;6.75;;;12.20;99.90;;;;;;5047583;28;20052;-70
2022/06/15 02:30:30;;;;;;;10.55;6.20;;;12.10;99.90;;;;;;5032192;28;20036;-69
2022/06/15 02:32:56;;;;;;;13.27;6.23;;;12.10;99.90;;;;;;5038197;28;20083;-69
2022/06/15 02:35:22;;;;;;;12.18;6.95;;;12.10;99.90;;;;;;5031973;28;20056;-70
2022/06/15 02:37:50;;;;;;;8.60;5.53;;;12.10;99.90;;;;;;5034578;28;20041;-70
2022/06/15 02:40:19;;;;;;;10.88;6.07;;;12.10;99.90;;;;;;5039535;28;20041;-69
2022/06/15 02:42:46;;;;;;;12.27;5.80;;;12.10;99.90;;;;;;5031654;28;20049;-70
2022/06/15 02:45:36;;;;;;;13.30;5.72;;;12.10;99.90;;;;;;5032781;28;20048;-69
2022/06/15 02:48:05;;;;;;;9.48;6.10;;;12.10;99.90;;;;;;5029283;28;20563;-69
2022/06/15 02:50:38;;;;;;;10.40;6.47;;;12.00;99.90;;;;;;5039090;28;20068;-70
2022/06/15 02:53:09;;;;;;;10.27;6.20;;;12.00;99.90;;;;;;5035636;28;20483;-69
2022/06/15 02:55:38;;;;;;;14.68;6.22;;;12.00;99.90;;;;;;5032581;28;20037;-70
2022/06/15 02:58:15;;;;;;;13.73;6.35;;;12.00;99.90;;;;;;5033029;28;20422;-70
2022/06/15 03:00:41;;;;;;;16.27;7.18;;;12.00;99.90;;;;;;5029999;28;20033;-70
2022/06/15 03:03:08;;;;;;;11.13;7.15;;;12.00;99.90;;;;;;5040395;28;20064;-70
2022/06/15 03:05:34;;;;;;;12.57;6.03;;;12.00;99.90;;;;;;5026574;28;20044;-70
2022/06/15 03:07:59;;;;;;;7.72;5.45;;;12.00;99.90;;;;;;5029253;28;20041;-69
2022/06/15 03:10:25;;;;;;;11.45;6.22;;;12.00;99.90;;;;;;5032682;28;20123;-70
2022/06/15 03:12:51;;;;;;;17.63;6.28;;;12.10;99.90;;;;;;5030243;28;20079;-70
2022/06/15 03:15:16;;;;;;;10.68;6.20;;;12.10;99.90;;;;;;5035760;28;20080;-70
2022/06/15 03:17:42;;;;;;;10.30;6.10;;;12.10;99.90;;;;;;5033532;28;20527;-70
2022/06/15 03:20:10;;;;;;;12.93;6.70;;;12.20;99.90;;;;;;5029283;28;20041;-70
2022/06/15 03:22:36;;;;;;;10.75;5.82;;;12.20;99.90;;;;;;5026009;28;20045;-70
2022/06/15 03:25:03;;;;;;;13.55;6.38;;;12.20;99.90;;;;;;5040836;28;20048;-70
2022/06/15 03:27:29;;;;;;;11.82;6.20;;;12.30;99.90;;;;;;5032783;28;20418;-70
2022/06/15 03:29:54;;;;;;;11.98;6.03;;;12.30;99.90;;;;;;5032132;28;20041;-69
2022/06/15 03:32:20;;;;;;;9.70;6.20;;;12.30;99.90;;;;;;5032535;28;20087;-70
2022/06/15 03:34:46;;;;;;;12.82;6.28;;;12.40;99.90;;;;;;5030546;28;20033;-70
2022/06/15 03:37:12;;;;;;;11.15;6.18;;;12.40;99.90;;;;;;5031556;28;20061;-70
2022/06/15 03:39:38;;;;;;;9.85;6.03;;;12.40;99.90;;;;;;5028612;28;20037;-70
2022/06/15 03:42:30;;;;;;;12.00;6.43;;;12.50;99.90;;;;;;5032026;28;20112;-70
2022/06/15 03:44:55;;;;;;;10.80;5.90;;;12.50;99.90;;;;;;5033647;28;20085;-70
2022/06/15 03:47:21;;;;;;;10.70;6.40;;;12.50;99.90;;;;;;5043203;28;20081;-70
2022/06/15 03:49:51;;;;;;;13.88;6.32;;;12.60;99.90;;;;;;5032213;28;20037;-70
2022/06/15 03:52:25;;;;;;;14.95;6.70;;;12.60;99.90;;;;;;5028311;28;20102;-70
2022/06/15 03:54:51;;;;;;;10.70;6.25;;;12.70;99.90;;;;;;5036018;28;21083;-70
2022/06/15 03:57:19;;;;;;;10.40;5.28;;;12.70;99.90;;;;;;5046753;28;20112;-70
2022/06/15 03:59:46;;;;;;;9.40;5.95;;;12.70;99.90;;;;;;5034037;28;20042;-69
2022/06/15 04:02:11;;;;;;;15.57;6.53;;;12.80;99.90;;;;;;5040104;28;20056;-69
2022/06/15 04:04:38;;;;;;;9.75;6.00;;;12.80;99.90;;;;;;5051463;28;20053;-70
2022/06/15 04:07:04;;;;;;;12.73;6.00;;;12.80;99.90;;;;;;5037082;28;20333;-70
2022/06/15 04:09:31;;;;;;;10.90;5.20;;;12.90;99.90;;;;;;5038492;28;20048;-70
2022/06/15 04:12:01;;;;;;;15.32;5.72;;;12.90;99.90;;;;;;5033431;28;20479;-70
2022/06/15 04:14:31;;;;;;;12.15;5.90;;;13.00;99.90;;;;;;5037906;28;20114;-70
2022/06/15 04:16:58;;;;;;;12.10;5.50;;;13.00;99.90;;;;;;5033622;28;20559;-70
2022/06/15 04:19:29;;;;;;;13.00;5.50;;;13.00;99.90;;;;;;5032511;28;20095;-69
2022/06/15 04:21:55;;;;;;;11.70;5.75;;;13.10;99.90;;;;;;5037756;28;20133;-70
2022/06/15 04:24:23;;;;;;;15.07;5.80;;;13.10;99.90;;;;;;5030777;28;20410;-69
2022/06/15 04:26:49;;;;;;;8.70;5.43;;;13.20;99.90;;;;;;5034853;28;20487;-68
2022/06/15 04:29:16;;;;;;;9.55;4.50;;;13.30;99.90;;;;;;5025591;28;20045;-69
2022/06/15 04:31:42;;;;;;;13.38;5.38;;;13.40;99.90;;;;;;5028645;28;20123;-69
2022/06/15 04:34:09;;;;;;;9.02;5.03;;;13.40;99.90;;;;;;5030752;28;20076;-70
2022/06/15 04:36:37;;;;;;;11.48;4.90;;;13.40;99.90;;;;;;5031619;28;20052;-70
2022/06/15 04:39:04;;;;;;;8.48;5.00;;;13.40;99.90;;;;;;5028123;28;20442;-70
2022/06/15 04:41:30;;;;;;;9.65;5.47;;;13.40;99.90;;;;;;5026880;28;20088;-70
2022/06/15 04:43:55;;;;;;;11.18;5.10;;;13.30;99.90;;;;;;5026998;28;20040;-68
2022/06/15 04:46:21;;;;;;;11.40;5.45;;;13.40;99.90;;;;;;5032219;28;20052;-68
2022/06/15 04:48:47;;;;;;;10.10;5.03;;;13.40;99.90;;;;;;5026048;28;20046;-68
2022/06/15 04:51:22;;;;;;;6.95;4.47;;;13.50;99.90;;;;;;5042293;28;20032;-69
2022/06/15 04:53:49;;;;;;;9.40;4.80;;;13.50;99.90;;;;;;5040207;28;20099;-69
2022/06/15 04:56:15;;;;;;;11.07;5.35;;;13.50;99.90;;;;;;5034962;28;20076;-67
2022/06/15 04:58:43;;;;;;;10.52;5.05;;;13.60;99.90;;;;;;5034373;28;20036;-67
2022/06/15 05:01:09;;;;;;;14.93;5.87;;;13.60;99.90;;;;;;5044932;28;20059;-67
2022/06/15 05:03:37;;;;;;;8.13;5.13;;;13.60;99.90;;;;;;5033772;28;20075;-68
2022/06/15 05:06:10;;;;;;;15.25;6.30;;;13.60;99.90;;;;;;5030778;28;20052;-68
2022/06/15 05:08:35;;;;;;;9.88;5.57;;;13.50;99.90;;;;;;5030178;28;20440;-68
2022/06/15 05:11:01;;;;;;;10.82;5.97;;;13.60;99.90;;;;;;5025874;28;20128;-68
2022/06/15 05:13:27;;;;;;;9.93;5.57;;;13.60;99.90;;;;;;5018068;28;20056;-67
2022/06/15 05:15:53;;;;;;;12.98;6.47;;;13.70;99.90;;;;;;5035984;28;20123;-69
2022/06/15 05:18:19;;;;;;;10.57;6.10;;;13.70;99.90;;;;;;5024343;28;20095;-69
2022/06/15 05:20:44;;;;;;;11.55;6.00;;;13.60;99.90;;;;;;5028167;28;20036;-68
2022/06/15 05:23:15;;;;;;;9.00;6.18;;;13.60;99.90;;;;;;5037194;28;20033;-68
2022/06/15 05:25:41;;;;;;;9.75;5.45;;;13.60;99.90;;;;;;5039068;28;20348;-69
2022/06/15 05:28:08;;;;;;;12.10;6.35;;;13.70;99.90;;;;;;5028235;28;20390;-69
2022/06/15 05:30:34;;;;;;;17.20;6.20;;;13.70;99.90;;;;;;5036917;28;20041;-69
2022/06/15 05:32:59;;;;;;;12.70;6.35;;;13.80;99.90;;;;;;5026463;28;21254;-69
2022/06/15 05:35:25;;;;;;;13.30;5.68;;;13.80;99.90;;;;;;5031325;28;20060;-69
2022/06/15 05:37:51;;;;;;;9.50;5.60;;;13.80;99.90;;;;;;5034252;28;20046;-68
2022/06/15 05:40:16;;;;;;;8.55;5.78;;;13.80;99.90;;;;;;5029467;28;20067;-69
2022/06/15 05:42:42;;;;;;;11.23;5.28;;;13.90;99.90;;;;;;5033194;28;20124;-68
2022/06/15 05:45:09;;;;;;;9.20;5.45;;;14.00;99.90;;;;;;5038266;28;20041;-69
2022/06/15 05:47:34;;;;;;;13.05;6.15;;;14.00;99.90;;;;;;5030855;28;20045;-68
2022/06/15 05:50:00;;;;;;;8.82;5.75;;;14.10;99.90;;;;;;5026383;28;20038;-68
2022/06/15 05:52:26;;;;;;;14.93;6.20;;;14.10;99.90;;;;;;5033042;28;20099;-70
2022/06/15 05:54:52;;;;;;;9.93;5.55;;;14.30;99.90;;;;;;5040108;28;20041;-69
2022/06/15 05:57:23;;;;;;;11.30;5.30;;;14.30;99.90;;;;;;5047114;28;20167;-69
2022/06/15 05:59:50;;;;;;;12.90;5.30;;;14.50;99.90;;;;;;5036828;28;20510;-70
2022/06/15 06:02:17;;;;;;;10.65;5.03;;;14.60;99.90;;;;;;5036594;28;20517;-70
2022/06/15 06:04:43;;;;;;;9.10;5.57;;;14.70;99.90;;;;;;5031144;28;20103;-69
2022/06/15 06:07:10;;;;;;;11.95;5.30;;;14.90;99.90;;;;;;5049531;28;20041;-70
2022/06/15 06:09:36;;;;;;;8.68;4.78;;;15.10;99.90;;;;;;5035253;28;20044;-70
2022/06/15 06:12:02;;;;;;;9.95;5.00;;;15.10;99.90;;;;;;5040437;28;20041;-70
2022/06/15 06:14:27;;;;;;;11.02;4.85;;;15.40;99.90;;;;;;5039790;28;20041;-67
2022/06/15 06:16:53;;;;;;;8.07;4.72;;;15.70;99.90;;;;;;5025540;28;20045;-69
2022/06/15 06:19:19;;;;;;;11.07;5.10;;;15.90;99.90;;;;;;5030919;28;20059;-69
2022/06/15 06:21:45;;;;;;;6.53;4.43;;;16.00;99.90;;;;;;5029010;28;20488;-68
2022/06/15 06:24:11;;;;;;;10.40;4.47;;;16.00;99.90;;;;;;5030623;28;20041;-69
2022/06/15 06:26:37;;;;;;;12.00;4.20;;;16.10;99.90;;;;;;5032334;28;20045;-69
2022/06/15 06:29:05;;;;;;;8.23;4.22;;;16.20;99.90;;;;;;5037991;28;20403;-69
2022/06/15 06:31:31;;;;;;;8.88;4.45;;;16.30;99.90;;;;;;5026143;28;20041;-69
2022/06/15 06:33:57;;;;;;;8.68;4.35;;;16.40;99.90;;;;;;5026740;28;20494;-68
2022/06/15 06:36:30;;;;;;;6.78;4.05;;;16.50;99.90;;;;;;5043265;28;20045;-68
2022/06/15 06:38:57;;;;;;;11.10;4.25;;;16.50;99.90;;;;;;5024407;28;20050;-69
2022/06/15 06:41:25;;;;;;;10.02;4.80;;;16.60;99.90;;;;;;5031181;28;20405;-69
2022/06/15 06:43:51;;;;;;;10.88;3.80;;;16.60;99.90;;;;;;5044179;28;20127;-69
2022/06/15 06:46:17;;;;;;;8.98;4.45;;;16.60;99.90;;;;;;5049377;28;20075;-69
2022/06/15 06:48:43;;;;;;;10.90;4.40;;;16.70;99.90;;;;;;5049758;28;20522;-68
2022/06/15 06:51:09;;;;;;;15.43;4.28;;;16.80;99.90;;;;;;5040215;28;20538;-68
2022/06/15 06:53:35;;;;;;;7.95;3.90;;;16.90;99.90;;;;;;5048029;28;20038;-69
2022/06/15 06:56:07;;;;;;;8.30;3.80;;;17.00;99.90;;;;;;5035502;28;20491;-68
2022/06/15 06:58:33;;;;;;;10.38;3.80;;;17.00;99.90;;;;;;5028331;28;20025;-70
2022/06/15 07:00:59;;;;;;;9.00;3.80;;;17.00;99.90;;;;;;5038381;28;20055;-70
2022/06/15 07:03:25;;;;;;;7.90;3.42;;;16.90;99.90;;;;;;5044826;28;20081;-70
2022/06/15 07:05:51;;;;;;;7.57;3.60;;;17.00;99.90;;;;;;5032037;28;20417;-71
2022/06/15 07:08:17;;;;;;;7.15;2.97;;;17.10;99.90;;;;;;5031140;28;20056;-70
2022/06/15 07:10:43;;;;;;;12.60;3.17;;;17.10;99.90;;;;;;5033811;28;20506;-70
2022/06/15 07:13:09;;;;;;;8.63;3.20;;;17.20;99.90;;;;;;5031446;28;20041;-70
2022/06/15 07:15:36;;;;;;;8.60;3.40;;;17.30;99.90;;;;;;5033334;28;20034;-70
2022/06/15 07:18:03;;;;;;;7.32;3.50;;;17.40;99.90;;;;;;5052072;28;20458;-69
2022/06/15 07:20:30;;;;;;;7.78;2.90;;;17.40;99.90;;;;;;5029505;28;20046;-71
2022/06/15 07:22:57;;;;;;;8.70;3.25;;;17.40;99.90;;;;;;5030400;28;20042;-70
2022/06/15 07:25:25;;;;;;;6.50;3.70;;;17.60;99.90;;;;;;5029138;28;20084;-68
2022/06/15 07:27:50;;;;;;;9.70;3.47;;;17.60;99.90;;;;;;5047616;28;20855;-69
2022/06/15 07:30:19;;;;;;;9.98;3.25;;;17.70;99.90;;;;;;5056016;28;20120;-69
2022/06/15 07:32:46;;;;;;;7.00;3.20;;;17.70;99.90;;;;;;5031610;28;20049;-68
2022/06/15 07:35:19;;;;;;;7.25;3.22;;;17.60;99.90;;;;;;5038911;28;20033;-69
2022/06/15 07:37:45;;;;;;;6.18;3.30;;;17.70;99.90;;;;;;5027492;28;20080;-70
2022/06/15 07:40:12;;;;;;;7.95;3.28;;;17.70;99.90;;;;;;5033092;28;20407;-69
2022/06/15 07:42:37;;;;;;;7.57;2.90;;;17.70;99.90;;;;;;5032808;28;20065;-68
2022/06/15 07:45:04;;;;;;;5.00;2.60;;;17.70;99.90;;;;;;5029999;28;20083;-68
2022/06/15 07:50:15;;;;;;;7.35;2.65;;;17.80;99.90;;;;;;5031128;28;20377;-69
2022/06/15 07:52:43;;;;;;;6.95;2.83;;;17.90;99.90;;;;;;5028203;28;20041;-69
2022/06/15 07:55:13;;;;;;;7.15;2.67;;;18.10;99.90;;;;;;5030745;28;20107;-70
2022/06/15 07:57:38;;;;;;;9.80;2.78;;;18.30;99.90;;;;;;5033405;28;20052;-68
2022/06/15 08:00:07;;;;;;;7.72;3.08;;;18.50;99.90;;;;;;5037085;28;20045;-70
2022/06/15 08:02:33;;;;;;;4.95;2.40;;;18.50;99.90;;;;;;5047498;28;20063;-70
2022/06/15 08:04:59;;;;;;;9.63;3.00;;;18.60;99.90;;;;;;5047708;28;20052;-69
2022/06/15 08:07:25;;;;;;;12.27;3.15;;;18.90;99.90;;;;;;5060179;28;20406;-70
2022/06/15 08:09:51;;;;;;;9.95;3.00;;;19.00;99.90;;;;;;5048347;28;20045;-68
2022/06/15 08:12:18;;;;;;;7.20;2.83;;;19.00;99.90;;;;;;5036365;28;20055;-69
2022/06/15 08:14:47;;;;;;;13.30;3.17;;;18.90;99.90;;;;;;5041032;28;20055;-69
2022/06/15 08:17:28;;;;;;;7.90;2.78;;;18.80;99.90;;;;;;5029881;28;20299;-70
2022/06/15 08:20:05;;;;;;;6.07;2.80;;;18.80;99.90;;;;;;5037073;28;20056;-70
2022/06/15 08:22:33;;;;;;;3.53;2.28;;;18.70;99.90;;;;;;5031775;28;20053;-69
2022/06/15 08:25:03;;;;;;;7.47;2.70;;;19.00;99.90;;;;;;5027825;28;20044;-69
2022/06/15 08:27:30;;;;;;;8.27;2.72;;;19.30;99.90;;;;;;5046368;28;20046;-69
2022/06/15 08:29:56;;;;;;;9.65;3.20;;;19.50;99.90;;;;;;5027075;28;20040;-70
2022/06/15 08:32:22;;;;;;;8.32;3.05;;;19.80;99.90;;;;;;5025183;28;20044;-69
2022/06/15 08:34:49;;;;;;;8.63;3.40;;;19.80;99.90;;;;;;5040308;28;20049;-70
2022/06/15 08:37:18;;;;;;;6.28;2.70;;;19.90;99.90;;;;;;5027134;28;20053;-69
2022/06/15 08:39:44;;;;;;;6.32;2.60;;;19.90;99.90;;;;;;5036046;28;20043;-69
2022/06/15 08:42:37;;;;;;;6.70;2.70;;;19.90;99.90;;;;;;5036109;28;20052;-68
2022/06/15 08:45:30;;;;;;;7.57;2.70;;;19.80;99.90;;;;;;5028297;28;20048;-68
2022/06/15 08:48:12;;;;;;;8.85;2.60;;;19.50;99.90;;;;;;5042368;28;20418;-70
2022/06/15 08:51:02;;;;;;;4.55;2.65;;;19.10;99.90;;;;;;5031372;28;20045;-68
2022/06/15 08:53:42;;;;;;;6.63;2.58;;;19.10;99.90;;;;;;5026211;28;20060;-68
2022/06/15 08:56:13;;;;;;;7.38;2.55;;;19.10;99.90;;;;;;5027508;28;20054;-69
2022/06/15 08:58:42;;;;;;;10.07;2.60;;;18.90;99.90;;;;;;5031003;28;20072;-69
2022/06/15 09:01:14;;;;;;;11.82;3.13;;;18.90;99.90;;;;;;5030227;28;20049;-69
2022/06/15 09:03:54;;;;;;;11.10;3.35;;;18.80;99.90;;;;;;5044257;28;20495;-68
2022/06/15 09:06:31;;;;;;;4.43;2.20;;;18.90;99.90;;;;;;5028963;28;20100;-69
2022/06/15 09:08:59;;;;;;;6.85;2.30;;;18.80;99.90;;;;;;5028804;28;20041;-67
2022/06/15 09:11:31;;;;;;;7.22;2.05;;;18.80;99.90;;;;;;5028765;28;20049;-69
2022/06/15 09:14:38;;;;;;;4.88;2.35;;;18.80;99.90;;;;;;5036282;28;20590;-70
2022/06/15 09:17:14;;;;;;;6.03;2.25;;;18.80;99.90;;;;;;5017990;28;20115;-70
2022/06/15 09:19:56;;;;;;;6.32;2.17;;;19.00;99.90;;;;;;5030534;28;20041;-69
2022/06/15 09:22:27;;;;;;;8.05;2.30;;;19.40;99.90;;;;;;5039817;28;20064;-70
2022/06/15 09:25:00;;;;;;;7.53;2.00;;;19.60;99.90;;;;;;5029001;28;20048;-68
2022/06/15 09:28:01;;;;;;;7.45;2.90;;;19.70;99.90;;;;;;5048067;28;20206;-69
2022/06/15 09:30:31;;;;;;;4.28;2.10;;;19.50;99.90;;;;;;5002239;28;20508;-68
2022/06/15 09:33:13;;;;;;;6.68;2.45;;;19.50;99.90;;;;;;5023219;28;20128;-69
2022/06/15 09:35:50;;;;;;;6.82;2.50;;;19.50;99.90;;;;;;5026371;28;20048;-70
2022/06/15 09:38:17;;;;;;;5.20;2.20;;;19.30;99.90;;;;;;5043286;28;20096;-69
2022/06/15 09:40:50;;;;;;;6.57;2.22;;;19.20;99.90;;;;;;5024546;28;20577;-67
2022/06/15 09:43:49;;;;;;;11.00;2.33;;;19.20;99.90;;;;;;5029263;28;20119;-69
2022/06/15 09:46:20;;;;;;;4.85;2.00;;;19.40;99.90;;;;;;5021790;28;20084;-67
2022/06/15 09:48:55;;;;;;;7.15;2.20;;;19.30;99.90;;;;;;5025210;28;20045;-69
2022/06/15 09:51:49;;;;;;;7.35;2.13;;;19.20;99.90;;;;;;5023344;28;20143;-69
2022/06/15 09:54:36;;;;;;;7.95;2.30;;;19.10;99.90;;;;;;5024256;28;20049;-68
2022/06/15 09:57:01;;;;;;;7.75;2.42;;;19.10;99.90;;;;;;5044526;28;20045;-68
2022/06/15 09:59:33;;;;;;;7.63;2.40;;;19.00;99.90;;;;;;5044657;28;20041;-68
2022/06/15 10:01:59;;;;;;;6.47;2.67;;;18.90;99.90;;;;;;5007014;28;20167;-68
2022/06/15 10:04:28;;;;;;;6.95;2.00;;;18.90;99.90;;;;;;5043050;28;20051;-68
2022/06/15 10:07:00;;;;;;;8.25;2.50;;;18.90;99.90;;;;;;5039970;28;20364;-69
2022/06/15 10:09:30;;;;;;;5.15;2.22;;;18.90;99.90;;;;;;5037924;28;20037;-69
2022/06/15 10:15:07;;;;;;;5.63;2.20;;;19.30;99.90;;;;;;5030399;28;20088;-69
2022/06/15 10:17:39;;;;;;;7.53;2.25;;;19.90;99.90;;;;;;5032458;28;20113;-69
2022/06/15 10:20:05;;;;;;;6.45;2.20;;;20.40;99.90;;;;;;5030140;28;20052;-69
2022/06/15 10:22:39;;;;;;;3.83;2.00;;;20.60;99.90;;;;;;5029104;28;20049;-69
2022/06/15 10:25:06;;;;;;;5.63;1.98;;;20.60;99.60;;;;;;5031004;28;20120;-69
2022/06/15 10:27:38;;;;;;;5.32;1.95;;;20.50;99.00;;;;;;5035525;28;20046;-70
2022/06/15 10:30:07;;;;;;;9.68;2.17;;;20.60;98.20;;;;;;5042805;28;20145;-68
2022/06/15 10:32:35;;;;;;;5.40;1.90;;;20.60;97.80;;;;;;5028199;28;20053;-69
2022/06/15 10:35:11;;;;;;;5.68;2.63;;;20.70;97.00;;;;;;5026792;28;20140;-68
2022/06/15 10:37:50;;;;;;;8.23;2.20;;;20.60;96.90;;;;;;5028781;28;20053;-68
2022/06/15 10:40:32;;;;;;;7.22;2.50;;;20.30;97.90;;;;;;5027623;28;20522;-68
2022/06/15 10:43:12;;;;;;;7.63;2.30;;;20.20;97.80;;;;;;5050367;28;20131;-68
2022/06/15 10:45:54;;;;;;;8.52;2.15;;;20.20;98.10;;;;;;5046293;28;20045;-68
2022/06/15 10:48:54;;;;;;;6.50;2.00;;;20.20;98.10;;;;;;5027691;28;20380;-70
2022/06/15 10:51:35;;;;;;;7.75;2.10;;;20.30;96.60;;;;;;5037223;28;20053;-70
2022/06/15 10:54:30;;;;;;;6.82;2.03;;;20.30;96.90;;;;;;5034078;28;20045;-70
2022/06/15 11:03:10;;;;;;;5.65;2.00;;;20.50;95.90;;;;;;5047376;28;20057;-67
2022/06/15 11:05:35;;;;;;;6.43;2.17;;;20.70;95.50;;;;;;5029279;28;20041;-67
2022/06/15 11:08:12;;;;;;;11.52;2.55;;;21.00;96.60;;;;;;5045729;28;20048;-70
2022/06/15 11:10:42;;;;;;;6.53;2.85;;;21.20;96.60;;;;;;5026615;28;20056;-69
2022/06/15 11:13:20;;;;;;;5.85;2.90;;;21.40;96.70;;;;;;5044579;28;20407;-68
2022/06/15 11:18:57;;;;;;;7.25;2.97;;;21.10;95.20;;;;;;5031794;28;20427;-69
2022/06/15 11:21:28;;;;;;;6.55;2.90;;;20.60;96.70;;;;;;5028899;28;20549;-69
2022/06/15 11:24:04;;;;;;;10.77;2.88;;;20.60;96.60;;;;;;5042627;28;20073;-70
2022/06/15 11:29:37;;;;;;;9.52;3.05;;;21.10;96.70;;;;;;5041157;28;20060;-68
2022/06/15 11:32:39;;;;;;;8.90;3.40;;;21.20;95.70;;;;;;5063268;28;20128;-68
2022/06/15 11:35:14;;;;;;;4.22;2.70;;;21.00;95.30;;;;;;5029588;28;20534;-71
2022/06/15 11:38:23;;;;;;;10.77;3.33;;;20.70;96.80;;;;;;5028231;28;20047;-70
2022/06/15 11:40:58;;;;;;;7.33;3.30;;;20.70;96.30;;;;;;5004437;28;20042;-67
2022/06/15 11:43:33;;;;;;;9.43;3.17;;;21.10;95.90;;;;;;5005039;28;20053;-70
2022/06/15 11:46:11;;;;;;;12.48;3.67;;;21.30;96.80;;;;;;5019081;28;20049;-68
2022/06/15 11:48:48;;;;;;;6.40;2.60;;;21.60;94.80;;;;;;5031283;28;21356;-70
2022/06/15 11:51:31;;;;;;;15.23;2.88;;;21.90;95.90;;;;;;5029916;28;20140;-69
2022/06/15 11:54:11;;;;;;;7.80;3.05;;;22.40;93.30;;;;;;5029765;28;20682;-68
2022/06/15 11:57:21;;;;;;;6.53;3.33;;;22.50;94.40;;;;;;5052879;28;20120;-67
2022/06/15 12:00:11;;;;;;;5.22;2.83;;;22.70;93.10;;;;;;5032936;28;20049;-69
2022/06/15 12:02:44;;;;;;;7.20;3.58;;;22.80;92.50;;;;;;5038249;28;20060;-67
2022/06/15 12:05:34;;;;;;;5.47;3.22;;;22.70;91.90;;;;;;5065873;28;20033;-68
2022/06/15 12:08:38;;;;;;;10.63;2.95;;;22.50;90.60;;;;;;5047699;28;20052;-68
2022/06/15 12:12:37;;;;;;;6.88;2.83;;;22.20;90.70;;;;;;5056159;28;20045;-68
2022/06/15 12:14:22;;;;;;;6.70;3.30;;;22.00;90.50;;;;;;5036880;28;20132;-68
2022/06/15 12:16:50;;;;;;;8.68;3.13;;;21.70;90.90;;;;;;5021821;28;20435;-68
2022/06/15 12:19:41;;;;;;;8.93;3.35;;;21.50;91.00;;;;;;5027697;28;20488;-68
2022/06/15 12:22:13;;;;;;;9.32;3.15;;;21.30;90.70;;;;;;5035849;28;20631;-66
2022/06/15 12:24:44;;;;;;;6.68;3.17;;;21.10;90.60;;;;;;5029424;28;20105;-69
2022/06/15 12:27:26;;;;;;;8.15;3.40;;;20.90;90.80;;;;;;5044208;28;20056;-68
2022/06/15 12:30:02;;;;;;;7.38;3.50;;;20.50;90.80;;;;;;5043509;28;20049;-69
2022/06/15 12:32:56;;;;;;;6.72;3.22;;;20.60;90.30;;;;;;5042732;28;20124;-67
2022/06/15 12:35:32;;;;;;;8.32;3.10;;;20.50;90.70;;;;;;5051297;28;20088;-68
2022/06/15 12:38:30;;;;;;;8.10;3.33;;;20.40;91.00;;;;;;5044621;28;20037;-69
2022/06/15 12:44:02;;;;;;;7.65;3.05;;;20.40;91.60;;;;;;5044847;28;20573;-67
2022/06/15 12:46:29;;;;;;;9.18;3.63;;;20.30;91.60;;;;;;5040315;28;20159;-68
2022/06/15 12:49:13;;;;;;;12.57;3.95;;;20.40;91.40;;;;;;5046341;28;20053;-68
2022/06/15 12:51:50;;;;;;;6.55;3.13;;;20.40;91.70;;;;;;5045288;28;20631;-67
2022/06/15 12:54:54;;;;;;;10.10;2.70;;;20.60;91.90;;;;;;5047025;28;20106;-69
2022/06/15 12:57:38;;;;;;;9.38;3.25;;;21.20;92.40;;;;;;5032138;28;20081;-67
2022/06/15 13:00:19;;;;;;;6.40;3.35;;;21.70;91.00;;;;;;5040093;28;20114;-68
2022/06/15 13:03:06;;;;;;;5.85;2.97;;;21.90;87.90;;;;;;5045222;28;20102;-68
2022/06/15 13:05:38;;;;;;;5.05;2.70;;;21.80;88.40;;;;;;5044399;28;20060;-67
2022/06/15 13:08:33;;;;;;;8.50;3.10;;;21.90;88.80;;;;;;5049596;28;20056;-67
2022/06/15 13:11:11;;;;;;;9.80;3.38;;;22.20;87.50;;;;;;5038433;28;20041;-69
2022/06/15 13:13:42;;;;;;;6.53;2.80;;;22.40;89.00;;;;;;5042357;28;20040;-68
2022/06/15 13:16:12;;;;;;;6.13;2.80;;;22.60;87.40;;;;;;5058575;28;20080;-67
2022/06/15 13:18:48;;;;;;;6.18;2.60;;;22.90;86.60;;;;;;5044867;28;20053;-69
2022/06/15 13:21:19;;;;;;;6.97;2.78;;;23.10;83.90;;;;;;5040086;28;20087;-68
2022/06/15 13:24:06;;;;;;;6.32;2.17;;;23.00;82.40;;;;;;5043746;28;20060;-69
2022/06/15 13:26:38;;;;;;;6.68;2.90;;;23.00;83.60;;;;;;5043887;28;20050;-68
2022/06/15 13:29:19;;;;;;;8.48;2.88;;;23.10;82.90;;;;;;5051548;28;20144;-69
2022/06/15 13:31:51;;;;;;;7.20;2.85;;;23.30;80.90;;;;;;5039662;28;20927;-68